createdAt,value
2016-05-18T00:00:33.072Z,9.82
2016-05-18T00:01:33.074Z,9.87
2016-05-18T00:02:33.062Z,9.89
2016-05-18T00:03:33.080Z,9.89
2016-05-18T00:04:33.067Z,9.91
2016-05-18T00:05:33.070Z,9.87
2016-05-18T00:06:45.635Z,9.86
2016-05-18T00:07:33.122Z,9.92
2016-05-18T00:08:33.046Z,9.98
2016-05-18T00:09:33.065Z,10.05
2016-05-18T00:10:33.052Z,10.04
2016-05-18T00:11:33.071Z,10.1
2016-05-18T00:12:33.041Z,10.04
2016-05-18T00:13:33.044Z,10.04
2016-05-18T00:14:33.047Z,10.01
2016-05-18T00:15:33.049Z,10.09
2016-05-18T00:16:33.052Z,10.09
2016-05-18T00:17:33.055Z,10.12
2016-05-18T00:18:33.043Z,10.12
2016-05-18T00:19:45.779Z,10.2
2016-05-18T00:20:32.892Z,10.13
2016-05-18T00:21:33.050Z,10.22
2016-05-18T00:22:33.053Z,10.15
2016-05-18T00:23:32.884Z,10.09
2016-05-18T00:24:32.870Z,10.09
2016-05-18T00:25:33.031Z,10.28
2016-05-18T00:26:33.017Z,10.15
2016-05-18T00:27:33.019Z,10.12
2016-05-18T00:28:32.991Z,10.13
2016-05-18T00:29:33.009Z,10.17
2016-05-18T00:30:45.747Z,10.13
2016-05-18T00:31:33.092Z,10.17
2016-05-18T00:32:33.018Z,10.12
2016-05-18T00:33:33.005Z,10.15
2016-05-18T00:34:33.022Z,10.16
2016-05-18T00:35:45.744Z,10.09
2016-05-18T00:36:32.919Z,10.07
2016-05-18T00:37:33.015Z,10.01
2016-05-18T00:38:32.987Z,10.13
2016-05-18T00:39:32.989Z,10.16
2016-05-18T00:40:32.991Z,10.01
2016-05-18T00:41:45.730Z,10.12
2016-05-18T00:42:33.013Z,10.09
2016-05-18T00:43:32.968Z,10.02
2016-05-18T00:44:33.003Z,9.97
2016-05-18T00:45:45.724Z,9.95
2016-05-18T00:46:32.977Z,9.94
2016-05-18T00:47:32.979Z,9.99
2016-05-18T00:48:33.013Z,9.94
2016-05-18T00:49:32.984Z,9.86
2016-05-18T00:50:32.973Z,9.89
2016-05-18T00:51:32.959Z,9.84
2016-05-18T00:52:32.837Z,9.92
2016-05-18T00:53:45.606Z,9.77
2016-05-18T00:54:32.983Z,9.91
2016-05-18T00:55:32.954Z,9.83
2016-05-18T00:56:32.972Z,9.76
2016-05-18T00:57:32.975Z,9.73
2016-05-18T00:58:32.978Z,9.76
2016-05-18T00:59:32.965Z,9.73
2016-05-18T01:00:45.702Z,9.65
2016-05-18T01:01:45.548Z,9.64
2016-05-18T01:02:32.958Z,9.74
2016-05-18T01:03:32.944Z,9.74
2016-05-18T01:04:32.931Z,9.69
2016-05-18T01:05:32.794Z,9.73
2016-05-18T01:06:45.703Z,9.65
2016-05-18T01:07:33.080Z,9.72
2016-05-18T01:08:32.927Z,9.79
2016-05-18T01:09:32.930Z,9.73
2016-05-18T01:10:32.932Z,9.73
2016-05-18T01:11:32.935Z,9.77
2016-05-18T01:12:45.671Z,9.79
2016-05-18T01:13:32.956Z,9.74
2016-05-18T01:14:32.755Z,9.8
2016-05-18T01:15:32.914Z,9.79
2016-05-18T01:16:32.932Z,9.84
2016-05-18T01:17:52.123Z,9.84
2016-05-18T01:18:45.516Z,9.83
2016-05-18T01:19:32.753Z,9.83
2016-05-18T01:20:58.444Z,9.87
2016-05-18T01:21:32.899Z,9.86
2016-05-18T01:22:32.934Z,9.82
2016-05-18T01:23:32.920Z,9.83
2016-05-18T01:24:32.906Z,9.86
2016-05-18T01:25:32.754Z,9.79
2016-05-18T01:26:32.756Z,9.82
2016-05-18T01:27:32.915Z,9.72
2016-05-18T01:28:32.903Z,9.74
2016-05-18T01:29:32.592Z,9.64
2016-05-18T01:30:32.923Z,9.61
2016-05-18T01:31:32.894Z,9.64
2016-05-18T01:32:32.586Z,9.55
2016-05-18T01:33:32.744Z,9.54
2016-05-18T01:34:32.903Z,9.51
2016-05-18T01:35:32.905Z,9.56
2016-05-18T01:36:32.736Z,9.51
2016-05-18T01:37:32.895Z,9.62
2016-05-18T01:38:32.882Z,9.55
2016-05-18T01:39:32.869Z,9.56
2016-05-18T01:40:32.732Z,9.58
2016-05-18T01:41:32.875Z,9.48
2016-05-18T01:42:32.877Z,9.54
2016-05-18T01:43:32.865Z,9.44
2016-05-18T01:44:52.102Z,9.43
2016-05-18T01:45:32.870Z,9.44
2016-05-18T01:46:32.873Z,9.41
2016-05-18T01:47:32.719Z,9.44
2016-05-18T01:48:32.722Z,9.4
2016-05-18T01:49:32.849Z,9.39
2016-05-18T01:50:32.884Z,9.41
2016-05-18T01:51:32.854Z,9.47
2016-05-18T01:52:32.857Z,9.43
2016-05-18T01:53:32.845Z,9.41
2016-05-18T01:54:32.847Z,9.44
2016-05-18T01:55:32.693Z,9.51
2016-05-18T01:56:32.681Z,9.5
2016-05-18T01:57:32.840Z,9.55
2016-05-18T01:58:32.842Z,9.58
2016-05-18T01:59:32.829Z,9.51
2016-05-18T02:00:32.848Z,9.59
2016-05-18T02:01:32.834Z,9.51
2016-05-18T02:02:32.838Z,9.56
2016-05-18T02:03:32.825Z,9.58
2016-05-18T02:04:32.874Z,9.55
2016-05-18T02:05:32.861Z,9.54
2016-05-18T02:06:32.833Z,9.64
2016-05-18T02:07:32.804Z,9.56
2016-05-18T02:08:32.838Z,9.61
2016-05-18T02:09:32.825Z,9.61
2016-05-18T02:10:32.812Z,9.65
2016-05-18T02:11:32.831Z,9.61
2016-05-18T02:12:32.802Z,9.62
2016-05-18T02:13:32.820Z,9.64
2016-05-18T02:14:32.652Z,9.59
2016-05-18T02:15:32.810Z,9.64
2016-05-18T02:16:32.797Z,9.66
2016-05-18T02:17:32.815Z,9.61
2016-05-18T02:18:32.490Z,9.61
2016-05-18T02:19:32.790Z,9.56
2016-05-18T02:20:32.776Z,9.55
2016-05-18T02:21:32.795Z,9.56
2016-05-18T02:22:33.157Z,9.64
2016-05-18T02:23:33.176Z,9.64
2016-05-18T02:24:32.803Z,9.65
2016-05-18T02:25:51.837Z,9.72
2016-05-18T02:26:40.074Z,9.76
2016-05-18T02:27:38.670Z,9.8
2016-05-18T02:28:38.673Z,9.74
2016-05-18T02:29:38.675Z,9.77
2016-05-18T02:30:38.679Z,9.79
2016-05-18T02:31:38.681Z,9.77
2016-05-18T02:32:38.684Z,9.8
2016-05-18T02:33:38.670Z,9.8
2016-05-18T02:34:38.673Z,9.73
2016-05-18T02:35:38.676Z,9.68
2016-05-18T02:36:38.695Z,9.69
2016-05-18T02:37:38.666Z,9.62
2016-05-18T02:38:57.856Z,9.62
2016-05-18T02:39:38.687Z,9.65
2016-05-18T02:40:38.658Z,9.54
2016-05-18T02:41:38.646Z,9.58
2016-05-18T02:42:38.633Z,9.58
2016-05-18T02:43:38.651Z,9.56
2016-05-18T02:44:38.638Z,9.54
2016-05-18T02:45:38.640Z,9.59
2016-05-18T02:46:38.628Z,9.58
2016-05-18T02:47:57.849Z,9.59
2016-05-18T02:48:38.633Z,9.55
2016-05-18T02:49:38.463Z,9.54
2016-05-18T02:50:38.624Z,9.55
2016-05-18T02:51:38.610Z,9.59
2016-05-18T02:52:39.346Z,9.5
2016-05-18T02:53:38.632Z,9.59
2016-05-18T02:54:38.618Z,9.5
2016-05-18T02:55:38.636Z,9.47
2016-05-18T02:56:38.639Z,9.46
2016-05-18T02:57:38.610Z,9.47
2016-05-18T02:58:51.332Z,9.5
2016-05-18T02:59:38.287Z,9.5
2016-05-18T03:00:38.618Z,9.51
2016-05-18T03:01:38.590Z,9.56
2016-05-18T03:02:38.608Z,9.55
2016-05-18T03:03:51.173Z,9.5
2016-05-18T03:04:38.598Z,9.58
2016-05-18T03:05:38.429Z,9.55
2016-05-18T03:06:38.431Z,9.48
2016-05-18T03:07:38.419Z,9.55
2016-05-18T03:08:38.593Z,9.5
2016-05-18T03:09:38.564Z,9.55
2016-05-18T03:10:38.427Z,9.59
2016-05-18T03:11:38.569Z,9.51
2016-05-18T03:12:38.573Z,9.47
2016-05-18T03:13:38.575Z,9.56
2016-05-18T03:14:38.405Z,9.51
2016-05-18T03:15:38.565Z,9.55
2016-05-18T03:16:38.568Z,9.54
2016-05-18T03:17:38.602Z,9.56
2016-05-18T03:18:57.604Z,9.55
2016-05-18T03:19:38.577Z,9.56
2016-05-18T03:20:38.563Z,9.62
2016-05-18T03:21:38.596Z,9.66
2016-05-18T03:22:38.974Z,9.64
2016-05-18T03:23:39.023Z,9.65
2016-05-18T03:24:38.543Z,9.68
2016-05-18T03:25:38.545Z,9.66
2016-05-18T03:26:38.376Z,9.68
2016-05-18T03:27:38.535Z,9.62
2016-05-18T03:28:38.553Z,9.65
2016-05-18T03:29:38.587Z,9.66
2016-05-18T03:30:38.574Z,9.65
2016-05-18T03:31:57.734Z,9.66
2016-05-18T03:32:38.376Z,9.69
2016-05-18T03:33:38.426Z,9.82
2016-05-18T03:34:38.538Z,9.77
2016-05-18T03:35:38.525Z,9.8
2016-05-18T03:36:38.544Z,9.74
2016-05-18T03:37:38.624Z,9.77
2016-05-18T03:38:38.518Z,9.76
2016-05-18T03:39:38.519Z,9.74
2016-05-18T03:40:38.507Z,9.76
2016-05-18T03:41:38.353Z,9.72
2016-05-18T03:42:38.513Z,9.74
2016-05-18T03:43:38.500Z,9.74
2016-05-18T03:44:38.519Z,9.82
2016-05-18T03:45:38.349Z,9.79
2016-05-18T03:46:38.492Z,9.74
2016-05-18T03:47:51.074Z,9.76
2016-05-18T03:48:38.529Z,9.8
2016-05-18T03:49:38.485Z,9.74
2016-05-18T03:50:38.332Z,9.65
2016-05-18T03:51:38.505Z,9.73
2016-05-18T03:52:38.493Z,9.64
2016-05-18T03:53:38.495Z,9.55
2016-05-18T03:54:38.499Z,9.58
2016-05-18T03:55:38.501Z,9.62
2016-05-18T03:56:38.473Z,9.62
2016-05-18T03:57:38.476Z,9.59
2016-05-18T03:58:38.509Z,9.65
2016-05-18T03:59:38.324Z,9.65
2016-05-18T04:00:38.467Z,9.68
2016-05-18T04:01:38.454Z,9.72
2016-05-18T04:02:38.473Z,9.72
2016-05-18T04:03:38.460Z,9.72
2016-05-18T04:04:38.478Z,9.86
2016-05-18T04:05:38.465Z,9.84
2016-05-18T04:06:51.203Z,9.83
2016-05-18T04:07:38.455Z,9.94
2016-05-18T04:08:38.692Z,9.95
2016-05-18T04:09:38.445Z,9.86
2016-05-18T04:10:38.463Z,10.01
2016-05-18T04:11:38.434Z,9.95
2016-05-18T04:12:38.297Z,10.04
2016-05-18T04:13:51.034Z,9.98
2016-05-18T04:14:38.286Z,9.99
2016-05-18T04:15:38.430Z,10.05
2016-05-18T04:16:57.651Z,10.04
2016-05-18T04:17:38.138Z,10.05
2016-05-18T04:18:38.328Z,10.09
2016-05-18T04:19:38.268Z,10.04
2016-05-18T04:20:38.428Z,9.99
2016-05-18T04:21:38.430Z,10.01
2016-05-18T04:22:58.277Z,9.98
2016-05-18T04:23:38.576Z,9.98
2016-05-18T04:24:38.438Z,10.04
2016-05-18T04:25:38.285Z,10.05
2016-05-18T04:26:38.271Z,10.05
2016-05-18T04:27:38.416Z,10.2
2016-05-18T04:28:38.418Z,10.13
2016-05-18T04:29:38.404Z,10.12
2016-05-18T04:30:51.142Z,10.09
2016-05-18T04:31:38.409Z,10.19
2016-05-18T04:32:38.397Z,10.26
2016-05-18T04:33:38.431Z,10.25
2016-05-18T04:34:38.418Z,10.26
2016-05-18T04:35:38.249Z,10.28
2016-05-18T04:36:38.409Z,10.33
2016-05-18T04:37:38.254Z,10.35
2016-05-18T04:38:38.257Z,10.3
2016-05-18T04:39:38.401Z,10.38
2016-05-18T04:40:38.419Z,10.38
2016-05-18T04:41:38.422Z,10.42
2016-05-18T04:42:38.377Z,10.41
2016-05-18T04:43:38.395Z,10.4
2016-05-18T04:44:38.383Z,10.3
2016-05-18T04:45:38.401Z,10.38
2016-05-18T04:46:57.575Z,10.37
2016-05-18T04:47:38.219Z,10.38
2016-05-18T04:48:38.377Z,10.4
2016-05-18T04:49:38.396Z,10.53
2016-05-18T04:50:38.383Z,10.46
2016-05-18T04:51:38.230Z,10.53
2016-05-18T04:52:38.389Z,10.56
2016-05-18T04:53:38.391Z,10.53
2016-05-18T04:54:38.363Z,10.56
2016-05-18T04:55:38.365Z,10.57
2016-05-18T04:56:57.587Z,10.56
2016-05-18T04:57:38.386Z,10.6
2016-05-18T04:58:38.218Z,10.54
2016-05-18T04:59:38.220Z,10.56
2016-05-18T05:00:38.395Z,10.57
2016-05-18T05:01:38.366Z,10.59
2016-05-18T05:02:38.400Z,10.57
2016-05-18T05:03:38.465Z,10.56
2016-05-18T05:04:38.389Z,10.57
2016-05-18T05:05:38.361Z,10.64
2016-05-18T05:06:38.348Z,10.75
2016-05-18T05:07:38.366Z,10.72
2016-05-18T05:08:51.103Z,10.75
2016-05-18T05:09:38.357Z,10.78
2016-05-18T05:10:38.202Z,10.74
2016-05-18T05:11:38.361Z,10.81
2016-05-18T05:12:38.380Z,10.79
2016-05-18T05:13:38.351Z,10.79
2016-05-18T05:14:38.338Z,10.82
2016-05-18T05:15:38.200Z,10.96
2016-05-18T05:16:38.375Z,10.97
2016-05-18T05:17:38.378Z,10.99
2016-05-18T05:18:38.350Z,10.93
2016-05-18T05:19:38.336Z,11.05
2016-05-18T05:20:38.338Z,11.07
2016-05-18T05:21:38.185Z,11.23
2016-05-18T05:22:57.860Z,11.17
2016-05-18T05:23:38.535Z,11.29
2016-05-18T05:24:38.178Z,11.27
2016-05-18T05:25:38.337Z,11.29
2016-05-18T05:26:38.340Z,11.35
2016-05-18T05:27:38.326Z,11.4
2016-05-18T05:28:38.174Z,11.4
2016-05-18T05:29:38.332Z,11.45
2016-05-18T05:30:38.178Z,11.4
2016-05-18T05:31:38.337Z,11.43
2016-05-18T05:32:38.324Z,11.5
2016-05-18T05:33:38.327Z,11.5
2016-05-18T05:34:38.314Z,11.62
2016-05-18T05:35:39.754Z,11.65
2016-05-18T05:36:38.178Z,11.65
2016-05-18T05:37:38.338Z,11.68
2016-05-18T05:38:38.684Z,11.73
2016-05-18T05:39:38.171Z,11.66
2016-05-18T05:40:38.346Z,11.7
2016-05-18T05:41:38.333Z,11.63
2016-05-18T05:42:38.336Z,11.68
2016-05-18T05:43:38.322Z,11.55
2016-05-18T05:44:38.341Z,11.54
2016-05-18T05:45:38.344Z,11.6
2016-05-18T05:46:57.518Z,11.6
2016-05-18T05:47:38.317Z,11.6
2016-05-18T05:48:38.336Z,11.59
2016-05-18T05:49:38.322Z,11.55
2016-05-18T05:50:38.325Z,11.7
2016-05-18T05:51:38.344Z,11.78
2016-05-18T05:52:38.330Z,11.83
2016-05-18T05:53:38.958Z,11.87
2016-05-18T05:54:38.165Z,11.88
2016-05-18T05:55:38.324Z,11.95
2016-05-18T05:56:38.342Z,11.97
2016-05-18T05:57:38.330Z,12.1
2016-05-18T05:58:57.535Z,12.12
2016-05-18T05:59:38.318Z,12.09
2016-05-18T06:00:38.321Z,12.17
2016-05-18T06:01:38.324Z,12.13
2016-05-18T06:02:38.312Z,12.2
2016-05-18T06:03:38.189Z,12.13
2016-05-18T06:04:38.317Z,12.2
2016-05-18T06:05:38.148Z,12.12
2016-05-18T06:06:38.337Z,12.18
2016-05-18T06:07:38.325Z,12.18
2016-05-18T06:08:38.328Z,12.13
2016-05-18T06:09:38.314Z,12.18
2016-05-18T06:10:38.176Z,12.21
2016-05-18T06:11:38.336Z,12.28
2016-05-18T06:12:38.322Z,12.25
2016-05-18T06:13:38.325Z,12.36
2016-05-18T06:14:57.530Z,12.35
2016-05-18T06:15:38.330Z,12.37
2016-05-18T06:16:38.178Z,12.5
2016-05-18T06:17:38.164Z,12.53
2016-05-18T06:18:38.307Z,12.49
2016-05-18T06:19:38.310Z,12.61
2016-05-18T06:20:38.156Z,12.82
2016-05-18T06:21:38.175Z,12.83
2016-05-18T06:22:38.333Z,12.95
2016-05-18T06:23:57.383Z,13.54
2016-05-18T06:24:38.339Z,13.77
2016-05-18T06:25:38.326Z,13.86
2016-05-18T06:26:38.313Z,14.1
2016-05-18T06:27:38.332Z,14.47
2016-05-18T06:28:38.349Z,14.6
2016-05-18T06:29:38.321Z,14.66
2016-05-18T06:30:38.355Z,14.81
2016-05-18T06:31:38.342Z,14.97
2016-05-18T06:32:38.032Z,15.22
2016-05-18T06:33:38.051Z,15.43
2016-05-18T06:34:38.179Z,15.61
2016-05-18T06:35:57.572Z,16.04
2016-05-18T06:36:38.340Z,16.33
2016-05-18T06:37:38.359Z,16.53
2016-05-18T06:38:38.220Z,16.83
2016-05-18T06:39:38.348Z,17.41
2016-05-18T06:40:38.382Z,17.36
2016-05-18T06:41:38.354Z,17.39
2016-05-18T06:42:38.372Z,17.24
2016-05-18T06:43:38.358Z,17.05
2016-05-18T06:44:38.392Z,16.87
2016-05-18T06:45:57.458Z,16.89
2016-05-18T06:46:38.383Z,16.74
2016-05-18T06:47:38.400Z,16.64
2016-05-18T06:48:38.389Z,16.61
2016-05-18T06:49:38.375Z,16.54
2016-05-18T06:50:39.144Z,16.49
2016-05-18T06:51:57.600Z,16.43
2016-05-18T06:52:38.446Z,16.43
2016-05-18T06:53:38.324Z,16.5
2016-05-18T06:54:38.264Z,16.51
2016-05-18T06:55:38.485Z,16.6
2016-05-18T06:56:38.441Z,16.5
2016-05-18T06:57:38.460Z,16.64
2016-05-18T06:58:38.446Z,16.74
2016-05-18T06:59:38.449Z,16.79
2016-05-18T07:00:39.655Z,16.84
2016-05-18T07:01:38.438Z,16.76
2016-05-18T07:02:38.441Z,16.87
2016-05-18T07:03:38.304Z,16.79
2016-05-18T07:04:38.462Z,16.87
2016-05-18T07:05:57.684Z,16.93
2016-05-18T07:06:38.312Z,16.99
2016-05-18T07:07:38.486Z,17.16
2016-05-18T07:08:38.504Z,17.26
2016-05-18T07:09:38.492Z,17.11
2016-05-18T07:10:38.604Z,17.15
2016-05-18T07:11:38.512Z,17.15
2016-05-18T07:12:38.515Z,17.14
2016-05-18T07:13:38.517Z,17.49
2016-05-18T07:14:38.506Z,17.67
2016-05-18T07:15:39.117Z,17.83
2016-05-18T07:16:38.526Z,18
2016-05-18T07:17:51.247Z,18.31
2016-05-18T07:18:38.516Z,18.63
2016-05-18T07:19:38.534Z,18.7
2016-05-18T07:20:39.567Z,19.04
2016-05-18T07:21:38.539Z,19.08
2016-05-18T07:22:38.386Z,19.04
2016-05-18T07:23:38.404Z,18.95
2016-05-18T07:24:38.547Z,18.83
2016-05-18T07:25:40.081Z,18.65
2016-05-18T07:26:38.600Z,18.41
2016-05-18T07:27:38.571Z,18.26
2016-05-18T07:28:38.761Z,18.22
2016-05-18T07:29:38.577Z,18.13
2016-05-18T07:30:39.080Z,18.15
2016-05-18T07:31:57.630Z,18.26
2016-05-18T07:32:38.600Z,18.31
2016-05-18T07:33:38.618Z,18.38
2016-05-18T07:34:38.605Z,18.29
2016-05-18T07:35:38.952Z,18.41
2016-05-18T07:36:38.611Z,18.62
2016-05-18T07:37:38.613Z,18.7
2016-05-18T07:38:38.632Z,18.73
2016-05-18T07:39:38.618Z,18.88
2016-05-18T07:40:38.591Z,18.96
2016-05-18T07:41:51.281Z,18.84
2016-05-18T07:42:38.659Z,18.84
2016-05-18T07:43:38.504Z,18.98
2016-05-18T07:44:38.836Z,19.15
2016-05-18T07:45:39.698Z,19.31
2016-05-18T07:46:38.685Z,19.49
2016-05-18T07:47:38.500Z,19.49
2016-05-18T07:48:38.706Z,19.81
2016-05-18T07:49:38.692Z,20.1
2016-05-18T07:50:57.914Z,20.24
2016-05-18T07:51:38.714Z,20.22
2016-05-18T07:52:38.700Z,20.19
2016-05-18T07:53:39.172Z,20.11
2016-05-18T07:54:38.706Z,20.14
2016-05-18T07:55:39.287Z,20.4
2016-05-18T07:56:57.946Z,20.5
2016-05-18T07:57:38.761Z,20.55
2016-05-18T07:58:38.779Z,20.43
2016-05-18T07:59:38.783Z,20.29
2016-05-18T08:00:39.192Z,20.16
2016-05-18T08:01:38.757Z,20.09
2016-05-18T08:02:38.619Z,20.03
2016-05-18T08:03:38.793Z,20.02
2016-05-18T08:04:44.905Z,19.99
2016-05-18T08:05:40.846Z,19.91
2016-05-18T08:06:38.801Z,19.86
2016-05-18T08:07:38.804Z,19.82
2016-05-18T08:08:39.041Z,19.77
2016-05-18T08:09:38.825Z,19.74
2016-05-18T08:10:39.812Z,19.85
2016-05-18T08:11:38.830Z,19.95
2016-05-18T08:12:38.832Z,19.94
2016-05-18T08:13:38.835Z,20.04
2016-05-18T08:14:38.838Z,20.32
2016-05-18T08:15:38.856Z,20.52
2016-05-18T08:16:51.593Z,20.51
2016-05-18T08:17:44.970Z,20.72
2016-05-18T08:18:38.723Z,20.72
2016-05-18T08:19:38.711Z,20.66
2016-05-18T08:20:39.886Z,20.87
2016-05-18T08:21:38.920Z,21.12
2016-05-18T08:22:38.892Z,21.32
2016-05-18T08:23:38.784Z,21.32
2016-05-18T08:24:58.115Z,21.11
2016-05-18T08:25:58.150Z,21.12
2016-05-18T08:26:38.777Z,21.06
2016-05-18T08:27:38.946Z,21.22
2016-05-18T08:28:38.992Z,21.21
2016-05-18T08:29:39.036Z,21.24
2016-05-18T08:30:39.987Z,21.09
2016-05-18T08:31:39.142Z,21.14
2016-05-18T08:32:39.195Z,21.21
2016-05-18T08:33:39.198Z,21.21
2016-05-18T08:34:58.263Z,21.07
2016-05-18T08:35:39.843Z,21.2
2016-05-18T08:36:39.268Z,21.22
2016-05-18T08:37:39.283Z,21.36
2016-05-18T08:38:40.197Z,21.54
2016-05-18T08:39:39.315Z,21.69
2016-05-18T08:40:39.729Z,21.57
2016-05-18T08:41:39.346Z,21.58
2016-05-18T08:42:39.339Z,21.58
2016-05-18T08:43:39.391Z,21.55
2016-05-18T08:44:39.380Z,21.57
2016-05-18T08:45:39.291Z,21.5
2016-05-18T08:46:52.109Z,21.27
2016-05-18T08:47:39.394Z,21.17
2016-05-18T08:48:39.273Z,20.96
2016-05-18T08:49:39.417Z,20.72
2016-05-18T08:50:40.279Z,20.67
2016-05-18T08:51:52.142Z,20.65
2016-05-18T08:52:39.442Z,20.6
2016-05-18T08:53:39.445Z,20.69
2016-05-18T08:54:39.448Z,20.7
2016-05-18T08:55:40.748Z,20.66
2016-05-18T08:56:58.656Z,20.74
2016-05-18T08:57:39.316Z,20.66
2016-05-18T08:58:39.458Z,20.72
2016-05-18T08:59:39.477Z,20.88
2016-05-18T09:00:39.496Z,20.9
2016-05-18T09:01:58.544Z,20.93
2016-05-18T09:02:39.360Z,20.96
2016-05-18T09:03:39.332Z,20.97
2016-05-18T09:04:39.507Z,20.85
2016-05-18T09:05:58.712Z,20.93
2016-05-18T09:06:39.230Z,20.87
2016-05-18T09:07:39.529Z,20.99
2016-05-18T09:08:40.095Z,20.96
2016-05-18T09:09:39.535Z,20.97
2016-05-18T09:10:52.273Z,20.92
2016-05-18T09:11:40.196Z,20.93
2016-05-18T09:12:39.559Z,20.93
2016-05-18T09:13:39.406Z,20.88
2016-05-18T09:14:39.564Z,20.99
2016-05-18T09:15:52.317Z,20.99
2016-05-18T09:16:39.570Z,20.82
2016-05-18T09:17:39.604Z,20.6
2016-05-18T09:18:39.606Z,20.37
2016-05-18T09:19:39.500Z,20.26
2016-05-18T09:20:40.174Z,20.34
2016-05-18T09:21:39.614Z,20.36
2016-05-18T09:22:58.789Z,20.32
2016-05-18T09:23:40.042Z,20.36
2016-05-18T09:24:39.622Z,20.36
2016-05-18T09:25:40.141Z,20.43
2016-05-18T09:26:39.503Z,20.48
2016-05-18T09:27:58.864Z,20.59
2016-05-18T09:28:39.649Z,20.8
2016-05-18T09:29:39.651Z,20.84
2016-05-18T09:30:39.497Z,21.06
2016-05-18T09:31:52.422Z,21.24
2016-05-18T09:32:39.691Z,21.35
2016-05-18T09:33:39.537Z,21.39
2016-05-18T09:34:39.680Z,21.45
2016-05-18T09:35:39.699Z,21.35
2016-05-18T09:36:52.435Z,21.43
2016-05-18T09:37:39.720Z,21.35
2016-05-18T09:38:39.879Z,21.29
2016-05-18T09:39:39.554Z,21.15
2016-05-18T09:40:39.728Z,21.14
2016-05-18T09:41:39.574Z,21.02
2016-05-18T09:42:52.467Z,20.81
2016-05-18T09:43:52.329Z,20.74
2016-05-18T09:44:39.785Z,20.63
2016-05-18T09:45:39.757Z,20.77
2016-05-18T09:46:39.603Z,20.69
2016-05-18T09:47:39.778Z,20.66
2016-05-18T09:48:39.796Z,20.62
2016-05-18T09:49:52.517Z,20.62
2016-05-18T09:50:46.083Z,20.69
2016-05-18T09:51:58.992Z,20.67
2016-05-18T09:52:39.792Z,20.6
2016-05-18T09:54:55.125Z,20.47
2016-05-18T09:55:55.081Z,20.43
2016-05-18T09:56:54.928Z,20.37
2016-05-18T09:57:54.930Z,20.32
2016-05-18T09:59:14.308Z,20.41
2016-05-18T10:00:02.700Z,20.52
2016-05-18T10:01:01.297Z,20.43
2016-05-18T10:02:01.300Z,20.51
2016-05-18T10:03:07.569Z,20.59
2016-05-18T10:04:01.180Z,20.52
2016-05-18T10:05:01.168Z,20.66
2016-05-18T10:06:01.358Z,20.67
2016-05-18T10:07:20.532Z,20.75
2016-05-18T10:08:01.176Z,20.87
2016-05-18T10:09:01.069Z,20.84
2016-05-18T10:10:01.337Z,20.67
2016-05-18T10:11:01.355Z,20.56
2016-05-18T10:12:01.405Z,20.32
2016-05-18T10:13:01.204Z,20.26
2016-05-18T10:14:01.363Z,20.29
2016-05-18T10:15:01.382Z,20.43
2016-05-18T10:16:01.212Z,20.52
2016-05-18T10:17:01.371Z,20.55
2016-05-18T10:18:01.374Z,20.67
2016-05-18T10:19:01.377Z,20.8
2016-05-18T10:20:01.442Z,20.85
2016-05-18T10:21:01.398Z,20.96
2016-05-18T10:22:01.292Z,21.03
2016-05-18T10:23:01.419Z,21.02
2016-05-18T10:24:14.234Z,20.96
2016-05-18T10:25:01.284Z,20.88
2016-05-18T10:26:01.270Z,20.92
2016-05-18T10:27:01.430Z,20.75
2016-05-18T10:28:01.448Z,20.82
2016-05-18T10:29:02.700Z,20.87
2016-05-18T10:30:01.469Z,20.92
2016-05-18T10:31:01.472Z,21.03
2016-05-18T10:32:01.475Z,21
2016-05-18T10:33:01.508Z,21.12
2016-05-18T10:34:01.464Z,21.27
2016-05-18T10:35:14.202Z,21.33
2016-05-18T10:36:01.345Z,21.43
2016-05-18T10:37:01.488Z,21.57
2016-05-18T10:38:01.943Z,21.6
2016-05-18T10:39:01.368Z,21.66
2016-05-18T10:40:01.527Z,21.69
2016-05-18T10:41:14.280Z,21.67
2016-05-18T10:42:01.393Z,21.85
2016-05-18T10:43:01.520Z,21.91
2016-05-18T10:44:01.538Z,21.92
2016-05-18T10:45:20.604Z,21.88
2016-05-18T10:46:01.543Z,21.82
2016-05-18T10:47:01.656Z,21.72
2016-05-18T10:48:01.580Z,21.58
2016-05-18T10:49:01.568Z,21.62
2016-05-18T10:50:14.320Z,21.66
2016-05-18T10:51:01.666Z,21.57
2016-05-18T10:52:01.591Z,21.57
2016-05-18T10:53:01.797Z,21.58
2016-05-18T10:54:01.456Z,21.55
2016-05-18T10:55:20.818Z,21.62
2016-05-18T10:56:01.617Z,21.67
2016-05-18T10:57:01.620Z,21.64
2016-05-18T10:58:01.623Z,21.55
2016-05-18T10:59:14.469Z,21.46
2016-05-18T11:00:01.503Z,21.55
2016-05-18T11:01:01.725Z,21.66
2016-05-18T11:02:01.650Z,21.43
2016-05-18T11:03:01.714Z,21.5
2016-05-18T11:04:01.733Z,21.48
2016-05-18T11:05:01.688Z,21.5
2016-05-18T11:06:20.878Z,21.36
2016-05-18T11:07:01.538Z,21.32
2016-05-18T11:08:01.556Z,21.21
2016-05-18T11:09:07.808Z,21.24
2016-05-18T11:10:01.701Z,21.21
2016-05-18T11:11:01.596Z,21.11
2016-05-18T11:12:01.754Z,21.14
2016-05-18T11:13:01.726Z,21.2
2016-05-18T11:14:01.760Z,21.27
2016-05-18T11:15:01.574Z,21.14
2016-05-18T11:16:01.576Z,21.14
2016-05-18T11:17:14.487Z,21.24
2016-05-18T11:18:01.754Z,21.36
2016-05-18T11:19:01.601Z,21.45
2016-05-18T11:20:01.806Z,21.64
2016-05-18T11:21:01.809Z,21.6
2016-05-18T11:22:14.500Z,21.7
2016-05-18T11:23:01.799Z,21.77
2016-05-18T11:24:01.801Z,21.82
2016-05-18T11:25:21.023Z,21.89
2016-05-18T11:26:01.823Z,21.85
2016-05-18T11:27:01.809Z,21.79
2016-05-18T11:28:01.813Z,21.92
2016-05-18T11:29:01.831Z,22.04
2016-05-18T11:30:14.567Z,21.95
2016-05-18T11:31:14.430Z,21.91
2016-05-18T11:32:01.839Z,21.91
2016-05-18T11:33:02.075Z,21.93
2016-05-18T11:34:02.000Z,21.77
2016-05-18T11:35:01.894Z,21.69
2016-05-18T11:36:01.913Z,21.67
2016-05-18T11:37:01.883Z,21.66
2016-05-18T11:38:02.355Z,21.83
2016-05-18T11:39:01.889Z,21.93
2016-05-18T11:40:01.751Z,22.04
2016-05-18T11:41:01.910Z,22.1
2016-05-18T11:42:01.897Z,22.18
2016-05-18T11:43:01.932Z,22.13
2016-05-18T11:44:01.918Z,21.98
2016-05-18T11:45:08.233Z,21.92
2016-05-18T11:46:01.939Z,22.02
2016-05-18T11:47:01.942Z,21.91
2016-05-18T11:48:01.945Z,22.14
2016-05-18T11:49:14.681Z,22.3
2016-05-18T11:50:01.966Z,22.51
2016-05-18T11:51:01.953Z,22.62
2016-05-18T11:52:01.798Z,22.69
2016-05-18T11:53:02.255Z,22.54
2016-05-18T11:54:01.992Z,22.32
2016-05-18T11:55:08.260Z,22.04
2016-05-18T11:56:02.044Z,21.91
2016-05-18T11:57:02.000Z,21.79
2016-05-18T11:58:01.847Z,21.73
2016-05-18T11:59:02.020Z,21.75
2016-05-18T12:00:02.195Z,21.82
2016-05-18T12:01:02.026Z,21.91
2016-05-18T12:02:14.763Z,21.85
2016-05-18T12:03:02.047Z,21.99
2016-05-18T12:04:02.066Z,22.18
2016-05-18T12:05:02.084Z,22.28
2016-05-18T12:06:02.149Z,22.43
2016-05-18T12:07:02.105Z,22.45
2016-05-18T12:08:02.795Z,22.47
2016-05-18T12:09:05.188Z,22.35
2016-05-18T12:10:02.097Z,22.33
2016-05-18T12:11:02.178Z,22.45
2016-05-18T12:12:14.853Z,22.39
2016-05-18T12:13:01.793Z,22.32
2016-05-18T12:14:02.108Z,22.45
2016-05-18T12:15:02.126Z,22.41
2016-05-18T12:16:14.848Z,22.3
2016-05-18T12:17:02.148Z,22.28
2016-05-18T12:18:02.134Z,22.23
2016-05-18T12:19:02.185Z,22.2
2016-05-18T12:20:05.312Z,22.07
2016-05-18T12:21:02.251Z,21.99
2016-05-18T12:22:02.193Z,21.92
2016-05-18T12:23:02.632Z,21.99
2016-05-18T12:24:05.212Z,22.04
2016-05-18T12:25:05.576Z,21.92
2016-05-18T12:26:02.297Z,21.93
2016-05-18T12:27:02.206Z,21.8
2016-05-18T12:28:02.208Z,21.85
2016-05-18T12:29:02.211Z,21.89
2016-05-18T12:30:07.683Z,21.88
2016-05-18T12:31:14.653Z,21.83
2016-05-18T12:32:02.250Z,21.76
2016-05-18T12:33:02.269Z,21.66
2016-05-18T12:34:14.989Z,21.57
2016-05-18T12:35:05.009Z,21.58
2016-05-18T12:36:02.292Z,21.67
2016-05-18T12:37:02.091Z,21.7
2016-05-18T12:38:02.283Z,21.8
2016-05-18T12:39:02.878Z,21.85
2016-05-18T12:40:04.115Z,22.02
2016-05-18T12:41:02.337Z,22.23
2016-05-18T12:42:02.136Z,22.32
2016-05-18T12:43:02.139Z,22.3
2016-05-18T12:44:02.141Z,22.28
2016-05-18T12:45:15.051Z,22.29
2016-05-18T12:46:02.007Z,22.43
2016-05-18T12:47:02.338Z,22.47
2016-05-18T12:48:02.324Z,22.51
2016-05-18T12:49:02.342Z,22.45
2016-05-18T12:50:05.721Z,22.29
2016-05-18T12:51:08.754Z,22.36
2016-05-18T12:52:02.335Z,22.26
2016-05-18T12:53:02.385Z,22.22
2016-05-18T12:54:02.715Z,22.3
2016-05-18T12:55:05.890Z,22.25
2016-05-18T12:56:02.440Z,22.14
2016-05-18T12:57:02.396Z,22.06
2016-05-18T12:58:21.586Z,21.89
2016-05-18T12:59:08.432Z,21.85
2016-05-18T13:00:11.169Z,21.83
2016-05-18T13:01:08.641Z,21.83
2016-05-18T13:02:08.612Z,21.93
2016-05-18T13:03:27.818Z,22.26
2016-05-18T13:04:08.617Z,22.32